KALN/ALN METAR and TAF weather

Enter ICAO airport designator
Station Type Date Time Source
KALN METAR 2018/09/21 22:47 UTC NOAA

KALN 212247Z 34013G18KT 10SM BKN130 OVC200 23/13 A3009


Station Type Date Time Source
KALN Decoded METAR 2018/09/21 22:47 UTC NOAA

Alton/St. Louis, St. Louis Regional Airport, IL, United States (KALN) 38-54N 090-03W
Sep 21, 2018 - 06:47 PM EDT / 2018.09.21 2247 UTC
Wind: from the NNW (340 degrees) at 15 MPH (13 KT) gusting to 21 MPH (18 KT):0
Visibility: 10 mile(s):0
Sky conditions: overcast
Temperature: 73 F (23 C)
Dew Point: 55 F (13 C)
Relative Humidity: 53%
Pressure (altimeter): 30.09 in. Hg (1018 hPa)
ob: KALN 212247Z 34013G18KT 10SM BKN130 OVC200 23/13 A3009
cycle: 23

Station Type Date Time Source
KALN TAF UTC NOAA

Error!


Example: see airport list